Time;durP1;ratioP1;P1;durP2;ratioP2;P2;SDS_P1;SDS_P2;PMS_P1;PMS_P2;Temp;Humidity;BMP_temperature;BMP_pressure;BME280_temperature;BME280_humidity;BME280_pressure;Samples;Min_cycle;Max_cycle;Signal;HPM_P1;HPM_P2
2023/10/29 00:01:23;;;;;;;1.47;0.87;;;15.70;1.00;;;;;;5011512;28;20175;-81
2023/10/29 00:03:48;;;;;;;2.90;1.00;;;15.70;1.00;;;;;;4994865;28;20640;-79
2023/10/29 00:06:14;;;;;;;4.07;1.30;;;15.70;1.00;;;;;;4996952;28;20181;-81
2023/10/29 00:08:40;;;;;;;2.17;0.97;;;15.60;1.00;;;;;;4996850;28;20288;-79
2023/10/29 00:11:07;;;;;;;2.70;0.87;;;15.60;1.00;;;;;;4996917;28;20173;-81
2023/10/29 00:13:32;;;;;;;1.70;0.70;;;15.60;1.00;;;;;;5011554;28;20314;-80
2023/10/29 00:15:58;;;;;;;2.80;0.80;;;15.60;1.00;;;;;;4995123;28;20209;-80
2023/10/29 00:18:24;;;;;;;2.80;0.97;;;15.50;1.00;;;;;;4996658;28;20648;-83
2023/10/29 00:20:49;;;;;;;2.60;1.20;;;15.50;1.00;;;;;;4996716;28;20168;-81
2023/10/29 00:23:16;;;;;;;2.43;1.10;;;15.60;1.00;;;;;;4995882;28;20177;-81
2023/10/29 00:25:42;;;;;;;2.20;1.00;;;15.50;1.00;;;;;;4996258;28;20171;-80
2023/10/29 00:28:07;;;;;;;1.40;0.80;;;15.50;1.00;;;;;;4995441;28;20753;-80
2023/10/29 00:30:34;;;;;;;1.67;0.70;;;15.40;1.00;;;;;;4996098;28;20533;-81
2023/10/29 00:33:00;;;;;;;4.13;1.00;;;15.40;1.00;;;;;;4997748;28;20184;-78
2023/10/29 00:35:26;;;;;;;2.93;0.90;;;15.40;1.00;;;;;;5007085;28;20171;-78
2023/10/29 00:37:51;;;;;;;3.20;1.07;;;15.40;1.00;;;;;;5007822;28;20238;-81
2023/10/29 00:40:17;;;;;;;2.87;1.03;;;15.40;1.00;;;;;;5022338;28;20196;-80
2023/10/29 00:42:42;;;;;;;1.97;0.97;;;15.30;1.00;;;;;;4999877;28;20311;-81
2023/10/29 00:45:09;;;;;;;3.37;0.90;;;15.30;1.00;;;;;;5014422;28;20174;-80
2023/10/29 00:47:39;;;;;;;1.43;0.90;;;15.30;1.00;;;;;;4997816;28;20227;-81
2023/10/29 00:50:05;;;;;;;0.93;0.70;;;15.30;1.00;;;;;;4996824;28;20199;-80
2023/10/29 00:52:31;;;;;;;2.70;0.90;;;15.30;1.00;;;;;;4996025;28;20621;-83
2023/10/29 00:54:57;;;;;;;1.20;0.60;;;15.30;1.00;;;;;;4995513;28;20194;-82
2023/10/29 00:57:23;;;;;;;2.43;0.83;;;15.30;1.00;;;;;;4995568;28;20625;-82
2023/10/29 00:59:50;;;;;;;2.07;0.87;;;15.30;1.00;;;;;;4994949;28;20186;-81
2023/10/29 01:02:16;;;;;;;0.83;0.50;;;15.20;1.00;;;;;;4996757;28;20310;-81
2023/10/29 01:04:41;;;;;;;2.77;0.90;;;15.20;1.00;;;;;;4996189;28;20209;-82
2023/10/29 01:07:07;;;;;;;1.67;0.80;;;15.20;1.00;;;;;;4995250;28;20257;-82
2023/10/29 01:09:33;;;;;;;2.33;0.80;;;15.10;1.00;;;;;;4996383;28;20730;-80
2023/10/29 01:11:59;;;;;;;1.10;0.60;;;15.10;1.00;;;;;;5012276;28;20170;-81
2023/10/29 01:14:25;;;;;;;1.90;0.73;;;15.10;1.00;;;;;;4996409;28;20312;-82
2023/10/29 01:16:50;;;;;;;4.27;0.80;;;15.00;1.00;;;;;;5010337;28;20169;-80
2023/10/29 01:19:17;;;;;;;2.13;0.90;;;15.00;1.00;;;;;;5003875;28;20164;-80
2023/10/29 01:21:43;;;;;;;1.07;0.77;;;15.00;1.00;;;;;;5016663;28;20178;-79
2023/10/29 01:24:08;;;;;;;2.23;0.70;;;15.00;1.00;;;;;;5015973;28;20244;-80
2023/10/29 01:26:34;;;;;;;2.33;0.90;;;14.90;1.00;;;;;;5014330;28;20192;-81
2023/10/29 01:29:00;;;;;;;2.63;1.07;;;14.80;1.00;;;;;;4999120;28;20681;-81
2023/10/29 01:31:25;;;;;;;2.57;0.90;;;14.80;6.10;;;;;;4997602;28;20272;-82
2023/10/29 01:33:51;;;;;;;3.13;1.03;;;14.80;12.80;;;;;;5011132;28;20175;-81
2023/10/29 01:36:19;;;;;;;1.87;1.00;;;14.80;15.80;;;;;;4996330;28;20251;-80
2023/10/29 01:38:44;;;;;;;1.87;1.00;;;14.80;17.10;;;;;;4995816;28;20163;-81
2023/10/29 01:41:12;;;;;;;1.73;1.00;;;14.80;20.00;;;;;;4994659;28;20182;-81
2023/10/29 01:43:37;;;;;;;2.00;0.83;;;14.70;21.50;;;;;;4995356;28;20199;-83
2023/10/29 01:46:04;;;;;;;1.93;0.80;;;14.70;20.90;;;;;;5010923;28;20272;-81
2023/10/29 01:48:30;;;;;;;1.93;0.80;;;14.70;19.90;;;;;;4994103;28;20218;-82
2023/10/29 01:51:02;;;;;;;2.63;0.87;;;14.70;17.80;;;;;;5011225;28;20198;-82
2023/10/29 01:53:28;;;;;;;6.07;0.83;;;14.70;16.30;;;;;;4994060;28;20224;-83
2023/10/29 01:55:53;;;;;;;1.33;0.80;;;14.70;15.00;;;;;;4995724;28;20193;-84
2023/10/29 01:58:19;;;;;;;1.13;0.70;;;14.70;13.30;;;;;;5014835;28;20181;-81
2023/10/29 02:00:45;;;;;;;1.97;0.60;;;14.80;6.30;;;;;;4999904;28;20176;-83
2023/10/29 02:03:11;;;;;;;4.63;0.93;;;14.80;5.10;;;;;;5014822;28;20178;-81
2023/10/29 02:05:37;;;;;;;1.50;0.90;;;14.80;2.90;;;;;;4998529;28;20178;-81
2023/10/29 02:08:03;;;;;;;2.23;0.70;;;14.80;1.00;;;;;;5015168;28;20674;-82
2023/10/29 02:10:30;;;;;;;1.53;0.67;;;14.90;1.00;;;;;;4998741;28;20183;-82
2023/10/29 02:12:56;;;;;;;1.53;0.80;;;14.90;1.00;;;;;;4999137;28;20163;-82
2023/10/29 02:15:21;;;;;;;0.87;0.60;;;15.00;1.00;;;;;;4999279;28;20176;-81
2023/10/29 02:17:47;;;;;;;1.87;0.47;;;14.90;1.00;;;;;;4997672;28;20178;-81
2023/10/29 02:20:14;;;;;;;1.67;0.80;;;15.00;1.00;;;;;;4997438;28;20274;-81
2023/10/29 02:22:40;;;;;;;2.93;0.90;;;15.00;1.00;;;;;;5014177;28;20973;-81
2023/10/29 02:25:07;;;;;;;2.20;0.60;;;15.00;1.00;;;;;;5014009;28;20177;-79
2023/10/29 02:27:33;;;;;;;1.97;0.73;;;15.00;1.00;;;;;;4996936;28;20563;-83
2023/10/29 02:29:58;;;;;;;2.07;0.70;;;15.00;1.00;;;;;;5010936;28;20199;-78
2023/10/29 02:32:24;;;;;;;2.17;0.80;;;15.00;1.00;;;;;;5031641;28;20190;-82
2023/10/29 02:34:49;;;;;;;3.33;0.70;;;15.10;1.00;;;;;;5026024;28;20202;-81
2023/10/29 02:37:15;;;;;;;2.00;0.77;;;15.10;1.00;;;;;;5000144;28;20199;-83
2023/10/29 02:39:41;;;;;;;1.67;0.77;;;15.10;1.00;;;;;;4997834;28;20715;-82
2023/10/29 02:42:06;;;;;;;2.13;0.80;;;15.10;1.00;;;;;;4997001;28;20183;-82
2023/10/29 02:44:32;;;;;;;1.77;1.03;;;15.10;1.00;;;;;;4998905;28;20181;-80
2023/10/29 02:46:57;;;;;;;2.13;0.70;;;15.10;1.00;;;;;;4996404;28;20675;-81
2023/10/29 02:49:23;;;;;;;3.73;1.00;;;15.20;1.00;;;;;;4997631;28;20545;-80
2023/10/29 02:51:49;;;;;;;3.50;1.00;;;15.20;1.00;;;;;;4998683;28;20174;-81
2023/10/29 02:54:14;;;;;;;1.63;0.60;;;15.20;1.00;;;;;;4997127;28;20209;-81
2023/10/29 02:56:40;;;;;;;2.07;0.80;;;15.10;1.00;;;;;;5012630;28;20319;-81
2023/10/29 02:59:06;;;;;;;2.33;0.80;;;15.10;1.00;;;;;;4997880;28;20178;-82
2023/10/29 03:01:32;;;;;;;1.40;0.77;;;15.00;1.00;;;;;;4998104;28;20582;-83
2023/10/29 03:03:57;;;;;;;1.53;0.70;;;15.00;1.00;;;;;;4996596;28;20181;-81
2023/10/29 03:06:24;;;;;;;2.17;1.00;;;15.00;1.00;;;;;;5012456;28;20262;-79
2023/10/29 03:08:50;;;;;;;3.53;1.00;;;15.00;1.00;;;;;;4996616;28;20203;-81
2023/10/29 03:11:15;;;;;;;2.40;0.80;;;14.90;1.00;;;;;;4996230;28;20178;-81
2023/10/29 03:13:42;;;;;;;2.60;0.90;;;15.00;1.00;;;;;;4995607;28;20174;-83
2023/10/29 03:16:08;;;;;;;3.53;1.03;;;14.90;1.00;;;;;;4998000;28;20626;-80
2023/10/29 03:18:34;;;;;;;2.37;1.00;;;14.90;1.00;;;;;;4998047;28;20165;-82
2023/10/29 03:20:59;;;;;;;4.07;1.23;;;15.00;1.00;;;;;;4998180;28;20204;-83
2023/10/29 03:23:25;;;;;;;3.37;1.30;;;14.90;1.00;;;;;;4996295;28;20559;-82
2023/10/29 03:25:51;;;;;;;6.40;1.10;;;14.90;1.00;;;;;;4995708;28;20181;-85
2023/10/29 03:28:17;;;;;;;4.17;1.10;;;14.90;1.00;;;;;;4996837;28;20673;-83
2023/10/29 03:30:42;;;;;;;3.30;1.10;;;15.00;1.00;;;;;;4995852;28;20677;-82
2023/10/29 03:33:08;;;;;;;4.70;1.63;;;15.00;1.00;;;;;;4996097;28;20256;-80
2023/10/29 03:35:34;;;;;;;2.70;0.97;;;15.00;1.00;;;;;;4997960;28;20743;-81
2023/10/29 03:38:00;;;;;;;2.37;0.97;;;14.90;1.00;;;;;;5013138;28;20179;-82
2023/10/29 03:40:25;;;;;;;4.57;1.20;;;15.00;1.00;;;;;;4997740;28;20192;-82
2023/10/29 03:42:51;;;;;;;5.83;1.30;;;15.00;1.00;;;;;;4995813;28;20209;-82
2023/10/29 03:45:17;;;;;;;4.77;1.00;;;15.00;1.00;;;;;;4998003;28;20202;-80
2023/10/29 03:47:42;;;;;;;4.23;1.13;;;15.00;1.00;;;;;;4998840;28;20681;-81
2023/10/29 03:50:08;;;;;;;4.30;1.20;;;15.00;1.00;;;;;;4997380;28;20587;-81
2023/10/29 03:52:34;;;;;;;4.43;1.30;;;15.00;1.00;;;;;;4995292;28;20184;-82
2023/10/29 03:55:00;;;;;;;5.97;1.37;;;14.90;1.00;;;;;;5012179;28;20173;-81
2023/10/29 03:57:25;;;;;;;4.70;1.23;;;15.00;1.00;;;;;;4996645;28;20176;-81
2023/10/29 03:59:53;;;;;;;7.87;1.10;;;15.00;1.00;;;;;;5011866;28;20265;-81
2023/10/29 04:02:19;;;;;;;4.50;1.13;;;14.90;1.00;;;;;;4996839;28;20181;-83
2023/10/29 04:04:44;;;;;;;3.87;1.20;;;14.90;1.00;;;;;;4997090;28;20174;-81
2023/10/29 04:07:11;;;;;;;3.87;1.40;;;14.90;1.00;;;;;;4998004;28;20633;-80
2023/10/29 04:09:37;;;;;;;3.87;1.03;;;14.90;1.00;;;;;;4995573;28;20231;-82
2023/10/29 04:12:03;;;;;;;4.63;1.10;;;15.00;1.00;;;;;;4997933;28;20235;-82
2023/10/29 04:14:29;;;;;;;5.80;1.40;;;14.90;1.00;;;;;;4996433;28;20175;-80
2023/10/29 04:16:56;;;;;;;3.37;1.20;;;15.00;1.00;;;;;;4997328;28;20162;-80
2023/10/29 04:19:22;;;;;;;3.80;1.20;;;15.20;1.00;;;;;;4996033;28;20269;-87
2023/10/29 04:21:47;;;;;;;4.53;1.20;;;15.10;1.00;;;;;;4998304;28;20207;-81
2023/10/29 04:24:13;;;;;;;7.20;1.53;;;15.20;1.00;;;;;;4997379;28;20190;-84
2023/10/29 04:26:39;;;;;;;4.33;1.17;;;15.10;1.00;;;;;;5011675;28;20185;-82
2023/10/29 04:29:05;;;;;;;4.47;1.40;;;15.20;1.00;;;;;;4996771;28;20213;-85
2023/10/29 04:31:31;;;;;;;3.50;1.20;;;15.10;1.00;;;;;;5003488;28;20207;-81
2023/10/29 04:33:56;;;;;;;4.20;1.33;;;15.10;1.00;;;;;;5008472;28;20177;-84
2023/10/29 04:36:22;;;;;;;7.63;1.57;;;15.10;1.00;;;;;;5007430;28;20174;-79
2023/10/29 04:38:49;;;;;;;7.83;1.60;;;15.10;1.00;;;;;;5010904;28;20199;-81
2023/10/29 04:41:15;;;;;;;7.10;1.60;;;15.10;1.00;;;;;;5010281;28;20173;-81
2023/10/29 04:43:41;;;;;;;5.23;1.20;;;15.10;1.00;;;;;;5005032;28;20191;-82
2023/10/29 04:46:10;;;;;;;7.27;1.60;;;15.20;1.00;;;;;;5007789;28;20181;-80
2023/10/29 04:48:39;;;;;;;4.83;1.70;;;15.20;1.00;;;;;;5010026;28;20208;-83
2023/10/29 04:51:06;;;;;;;7.17;1.57;;;15.10;1.00;;;;;;5001076;28;20189;-84
2023/10/29 04:53:36;;;;;;;7.00;2.20;;;15.10;1.00;;;;;;5000254;28;20185;-81
2023/10/29 04:56:02;;;;;;;4.20;1.30;;;15.10;1.00;;;;;;5014203;28;20539;-84
2023/10/29 04:58:33;;;;;;;6.17;1.50;;;15.00;1.00;;;;;;4997862;28;20194;-79
2023/10/29 05:00:58;;;;;;;6.47;1.67;;;15.00;1.00;;;;;;5012508;28;20165;-84
2023/10/29 05:03:24;;;;;;;6.27;1.73;;;15.00;1.00;;;;;;4996939;28;20647;-82
2023/10/29 05:05:56;;;;;;;7.07;2.07;;;15.00;1.00;;;;;;4997359;28;20210;-82
2023/10/29 05:08:24;;;;;;;9.20;1.83;;;15.00;1.00;;;;;;4996571;28;20213;-83
2023/10/29 05:10:51;;;;;;;7.40;1.70;;;14.90;1.00;;;;;;4996455;28;20168;-82
2023/10/29 05:13:17;;;;;;;8.20;1.50;;;14.90;1.00;;;;;;5011305;28;20613;-85
2023/10/29 05:15:43;;;;;;;6.13;1.63;;;14.90;1.00;;;;;;5012030;28;20175;-81
2023/10/29 05:18:09;;;;;;;5.40;1.57;;;14.80;1.00;;;;;;4995809;28;20164;-81
2023/10/29 05:20:37;;;;;;;8.97;1.80;;;14.80;1.00;;;;;;4995621;28;20611;-82
2023/10/29 05:23:02;;;;;;;6.93;1.87;;;14.80;1.00;;;;;;5011864;28;20607;-83
2023/10/29 05:25:29;;;;;;;6.57;1.87;;;14.80;1.00;;;;;;4995253;28;20175;-82
2023/10/29 05:27:55;;;;;;;7.20;1.67;;;15.00;1.00;;;;;;4995251;28;20207;-85
2023/10/29 05:30:21;;;;;;;8.03;1.80;;;14.80;1.00;;;;;;5024971;28;20661;-84
2023/10/29 05:32:47;;;;;;;5.83;1.57;;;14.70;1.00;;;;;;5034249;28;20183;-85
2023/10/29 05:35:14;;;;;;;7.60;1.80;;;14.60;1.00;;;;;;5036995;28;20653;-85
2023/10/29 05:37:40;;;;;;;7.37;1.60;;;14.70;1.00;;;;;;5036483;28;20626;-83
2023/10/29 05:40:09;;;;;;;8.97;2.20;;;14.50;1.00;;;;;;5042044;28;20229;-80
2023/10/29 05:42:35;;;;;;;6.40;2.20;;;14.60;1.00;;;;;;5042487;28;20241;-81
2023/10/29 05:45:01;;;;;;;6.83;1.77;;;14.50;1.00;;;;;;5042019;28;20232;-87
2023/10/29 05:47:27;;;;;;;5.23;1.47;;;14.50;1.00;;;;;;5043030;28;20656;-83
2023/10/29 05:49:54;;;;;;;6.77;2.13;;;14.50;1.00;;;;;;5043663;28;20193;-81
2023/10/29 05:52:20;;;;;;;10.03;2.37;;;14.50;1.00;;;;;;5044276;28;20170;-81
2023/10/29 05:54:46;;;;;;;9.20;1.97;;;14.50;1.00;;;;;;5038514;28;20646;-84
2023/10/29 05:57:11;;;;;;;8.93;2.17;;;14.40;1.00;;;;;;5035184;28;20169;-82
2023/10/29 05:59:37;;;;;;;10.47;2.77;;;14.40;1.00;;;;;;5035328;28;20546;-83
2023/10/29 06:02:04;;;;;;;8.83;1.53;;;14.40;1.00;;;;;;5035315;28;20187;-85
2023/10/29 06:04:30;;;;;;;8.70;1.87;;;14.40;1.00;;;;;;5036064;28;20175;-85
2023/10/29 06:06:57;;;;;;;9.40;1.70;;;14.30;1.00;;;;;;5034993;28;20201;-82
2023/10/29 06:09:23;;;;;;;8.53;2.00;;;14.30;1.00;;;;;;5036501;28;20700;-85
2023/10/29 06:11:52;;;;;;;7.00;2.27;;;14.30;1.00;;;;;;5034867;28;20172;-82
2023/10/29 06:14:18;;;;;;;8.80;1.83;;;14.20;1.00;;;;;;5036949;28;20648;-81
2023/10/29 06:16:45;;;;;;;11.20;2.63;;;14.20;1.00;;;;;;5043298;28;20176;-80
2023/10/29 06:19:11;;;;;;;9.37;2.03;;;14.10;1.00;;;;;;5040720;28;20172;-81
2023/10/29 06:21:37;;;;;;;10.27;2.13;;;14.00;1.00;;;;;;5037369;28;20234;-84
2023/10/29 06:24:03;;;;;;;9.90;2.40;;;14.10;1.00;;;;;;5036781;28;20274;-82
2023/10/29 06:26:28;;;;;;;8.10;2.00;;;14.00;1.00;;;;;;5036948;28;20177;-82
2023/10/29 06:28:54;;;;;;;7.17;1.80;;;14.10;1.00;;;;;;5036656;28;20218;-81
2023/10/29 06:31:28;;;;;;;5.53;1.80;;;14.00;1.00;;;;;;5037143;28;20174;-83
2023/10/29 06:33:54;;;;;;;8.80;2.43;;;13.90;1.00;;;;;;5038067;28;20269;-84
2023/10/29 06:36:20;;;;;;;9.20;1.93;;;13.90;1.00;;;;;;5039461;28;20244;-83
2023/10/29 06:38:48;;;;;;;10.10;2.30;;;13.90;1.00;;;;;;5035446;28;20182;-83
2023/10/29 06:41:13;;;;;;;8.77;2.00;;;13.90;1.00;;;;;;5035384;28;20174;-82
2023/10/29 06:43:39;;;;;;;6.80;2.17;;;13.90;1.00;;;;;;5039138;28;20177;-82
2023/10/29 06:46:05;;;;;;;12.67;2.40;;;13.80;1.00;;;;;;5040712;28;20168;-83
2023/10/29 06:48:30;;;;;;;6.87;1.73;;;13.80;1.00;;;;;;5044052;28;20224;-84
2023/10/29 06:50:58;;;;;;;8.33;1.90;;;13.80;1.00;;;;;;5046786;28;20182;-82
2023/10/29 06:53:24;;;;;;;7.93;2.67;;;13.80;1.00;;;;;;5047738;28;20184;-80
2023/10/29 06:55:49;;;;;;;7.93;1.80;;;13.80;1.00;;;;;;5053711;28;20177;-80
2023/10/29 06:58:15;;;;;;;9.43;2.00;;;13.80;1.00;;;;;;5058621;28;20257;-80
2023/10/29 07:00:41;;;;;;;8.57;2.40;;;13.70;1.00;;;;;;5053344;28;20197;-80
2023/10/29 07:03:07;;;;;;;7.40;2.53;;;13.70;1.00;;;;;;5052433;28;20201;-81
2023/10/29 07:05:33;;;;;;;10.43;2.60;;;13.60;1.00;;;;;;5053395;28;20174;-81
2023/10/29 07:08:00;;;;;;;11.03;2.50;;;13.60;1.00;;;;;;5046671;28;20204;-81
2023/10/29 07:10:29;;;;;;;5.70;2.17;;;13.70;1.00;;;;;;5042391;28;20179;-81
2023/10/29 07:12:57;;;;;;;10.70;2.97;;;13.60;1.00;;;;;;5040882;28;20252;-84
2023/10/29 07:15:26;;;;;;;8.50;2.20;;;13.70;1.00;;;;;;5038626;28;20208;-83
2023/10/29 07:17:55;;;;;;;14.23;2.00;;;13.70;1.00;;;;;;5036963;28;20174;-83
2023/10/29 07:20:21;;;;;;;8.70;2.43;;;13.70;1.00;;;;;;5040949;28;20188;-82
2023/10/29 07:22:46;;;;;;;7.70;2.80;;;13.80;1.00;;;;;;5041190;28;20182;-85
2023/10/29 07:25:13;;;;;;;8.73;2.23;;;13.70;1.00;;;;;;5039321;28;20196;-80
2023/10/29 07:27:39;;;;;;;8.27;2.00;;;13.70;1.00;;;;;;5040422;28;20170;-82
2023/10/29 07:30:05;;;;;;;9.83;2.20;;;13.80;1.00;;;;;;5040895;28;20182;-81
2023/10/29 07:32:31;;;;;;;8.50;2.43;;;13.70;1.00;;;;;;5038935;28;20630;-82
2023/10/29 07:34:56;;;;;;;8.03;2.40;;;13.90;1.00;;;;;;5042355;28;20176;-85
2023/10/29 07:37:23;;;;;;;8.03;2.77;;;13.80;1.00;;;;;;5058021;28;20196;-82
2023/10/29 07:39:49;;;;;;;9.80;2.23;;;13.90;1.00;;;;;;5058395;28;20194;-81
2023/10/29 07:42:15;;;;;;;8.97;2.50;;;13.80;1.00;;;;;;5058752;28;20166;-87
2023/10/29 07:44:40;;;;;;;8.60;2.80;;;13.80;1.00;;;;;;5056234;28;20187;-81
2023/10/29 07:47:08;;;;;;;10.70;2.40;;;13.90;1.00;;;;;;5050558;28;20254;-82
2023/10/29 07:49:37;;;;;;;8.77;2.00;;;13.90;1.00;;;;;;5048674;28;20243;-83
2023/10/29 07:52:04;;;;;;;10.33;2.30;;;13.90;1.00;;;;;;5054123;28;20156;-81
2023/10/29 07:54:30;;;;;;;13.60;2.50;;;13.90;1.00;;;;;;5052461;28;20201;-87
2023/10/29 07:57:02;;;;;;;12.47;2.67;;;13.80;1.00;;;;;;5040246;28;20622;-88
2023/10/29 07:59:28;;;;;;;12.63;2.60;;;14.10;1.00;;;;;;5040544;28;20662;-80
2023/10/29 08:01:55;;;;;;;7.03;2.00;;;14.10;1.00;;;;;;5042131;28;20256;-81
2023/10/29 08:04:20;;;;;;;9.40;2.03;;;14.10;1.00;;;;;;5039470;28;20689;-85
2023/10/29 08:06:47;;;;;;;6.33;2.10;;;14.20;1.00;;;;;;5037021;28;20265;-85
2023/10/29 08:09:16;;;;;;;11.40;2.70;;;14.20;1.00;;;;;;5036954;28;20578;-86
2023/10/29 08:11:41;;;;;;;9.60;2.10;;;14.20;1.00;;;;;;5036507;28;20177;-83
2023/10/29 08:14:07;;;;;;;9.23;2.33;;;14.30;1.00;;;;;;5038059;28;20226;-82
2023/10/29 08:16:33;;;;;;;9.83;2.33;;;14.30;1.00;;;;;;5037775;28;20668;-85
2023/10/29 08:18:59;;;;;;;10.03;2.77;;;14.30;1.00;;;;;;5036982;28;20239;-85
2023/10/29 08:21:25;;;;;;;6.53;2.47;;;14.30;1.00;;;;;;5037582;28;20572;-86
2023/10/29 08:23:51;;;;;;;7.33;2.30;;;14.40;1.00;;;;;;5038095;28;20208;-82
2023/10/29 08:26:17;;;;;;;10.70;2.33;;;14.40;1.00;;;;;;5037303;28;20172;-85
2023/10/29 08:28:42;;;;;;;7.90;2.47;;;14.50;1.00;;;;;;5037283;28;20214;-83
2023/10/29 08:31:08;;;;;;;12.80;3.07;;;14.60;1.00;;;;;;5038370;28;20178;-83
2023/10/29 08:33:34;;;;;;;7.33;1.90;;;14.50;1.00;;;;;;5040712;28;20667;-83
2023/10/29 08:36:00;;;;;;;11.03;2.43;;;14.50;1.00;;;;;;5039872;28;20174;-83
2023/10/29 08:38:25;;;;;;;12.80;3.27;;;14.50;1.00;;;;;;5037566;28;20194;-86
2023/10/29 08:40:52;;;;;;;9.00;2.37;;;14.40;1.00;;;;;;5036954;28;20231;-85
2023/10/29 08:43:17;;;;;;;7.93;2.07;;;14.40;1.00;;;;;;5038085;28;20165;-85
2023/10/29 08:45:43;;;;;;;11.87;2.33;;;14.50;1.00;;;;;;5037188;28;20220;-84
2023/10/29 08:48:10;;;;;;;11.17;2.60;;;14.50;1.00;;;;;;5012483;28;20232;-85
2023/10/29 08:50:37;;;;;;;12.93;2.70;;;14.50;1.00;;;;;;4997799;28;20194;-84
2023/10/29 08:53:02;;;;;;;11.00;3.37;;;14.60;1.00;;;;;;4993992;28;20525;-81
2023/10/29 08:55:28;;;;;;;10.37;2.47;;;14.80;1.00;;;;;;4997129;28;20688;-86
2023/10/29 08:57:54;;;;;;;16.33;2.70;;;14.80;1.00;;;;;;4997896;28;20178;-85
2023/10/29 09:00:19;;;;;;;10.30;2.67;;;14.80;1.00;;;;;;5028938;28;20181;-85
2023/10/29 09:02:47;;;;;;;9.83;2.37;;;14.80;1.00;;;;;;5031766;28;20222;-83
2023/10/29 09:05:12;;;;;;;9.73;2.87;;;14.80;1.00;;;;;;4995040;28;20174;-84
2023/10/29 09:07:38;;;;;;;7.70;2.87;;;15.00;1.00;;;;;;5028145;28;20182;-82
2023/10/29 09:10:04;;;;;;;11.43;2.50;;;15.00;1.00;;;;;;4997860;28;20208;-85
2023/10/29 09:12:32;;;;;;;10.03;2.67;;;15.00;1.00;;;;;;4997149;28;20181;-81
2023/10/29 09:14:58;;;;;;;10.97;2.73;;;15.10;1.00;;;;;;5027902;28;20665;-87
2023/10/29 09:17:25;;;;;;;6.83;2.40;;;15.10;1.00;;;;;;4997319;28;20247;-83
2023/10/29 09:19:50;;;;;;;5.80;2.17;;;15.10;1.00;;;;;;4996658;28;20169;-85
2023/10/29 09:22:16;;;;;;;10.33;2.30;;;15.00;1.00;;;;;;4996565;28;20240;-82
2023/10/29 09:24:41;;;;;;;10.33;2.50;;;15.00;1.00;;;;;;4998321;28;20173;-82
2023/10/29 09:27:11;;;;;;;9.00;2.53;;;15.00;1.00;;;;;;5031578;28;20177;-80
2023/10/29 09:29:36;;;;;;;8.60;2.20;;;14.80;1.00;;;;;;4996947;28;20209;-86
2023/10/29 09:32:07;;;;;;;7.53;2.47;;;15.00;1.00;;;;;;4996336;28;20248;-83
2023/10/29 09:34:33;;;;;;;8.53;2.10;;;14.90;1.00;;;;;;5027567;28;20203;-82
2023/10/29 09:36:59;;;;;;;13.67;3.30;;;14.90;1.00;;;;;;5002324;28;20630;-85
2023/10/29 09:39:26;;;;;;;10.00;2.57;;;14.90;1.00;;;;;;5015548;28;20271;-85
2023/10/29 09:41:55;;;;;;;10.83;2.70;;;14.90;1.00;;;;;;4997058;28;20227;-83
2023/10/29 09:44:21;;;;;;;10.20;2.33;;;14.90;1.00;;;;;;4996365;28;20171;-83
2023/10/29 09:46:53;;;;;;;11.03;2.50;;;14.90;1.00;;;;;;4997255;28;20343;-84
2023/10/29 09:49:19;;;;;;;11.50;2.40;;;14.90;1.00;;;;;;4997219;28;20483;-84
2023/10/29 09:51:46;;;;;;;9.23;2.60;;;15.00;1.00;;;;;;4996383;28;20599;-83
2023/10/29 09:54:14;;;;;;;9.23;3.00;;;15.00;1.00;;;;;;4998491;28;20195;-84
2023/10/29 09:56:42;;;;;;;9.60;2.70;;;15.00;1.00;;;;;;4996769;28;20225;-85
2023/10/29 09:59:08;;;;;;;11.70;2.70;;;15.20;1.00;;;;;;4998436;28;20249;-86
2023/10/29 10:01:34;;;;;;;12.20;2.77;;;15.20;1.00;;;;;;4998546;28;20578;-85
2023/10/29 10:04:00;;;;;;;10.23;2.73;;;15.20;1.00;;;;;;4995856;28;20189;-80
2023/10/29 10:06:29;;;;;;;9.60;2.70;;;15.30;1.00;;;;;;4995739;28;20172;-79
2023/10/29 10:08:57;;;;;;;10.57;2.87;;;15.30;1.00;;;;;;4996599;28;20264;-83
2023/10/29 10:11:24;;;;;;;15.23;3.53;;;15.30;1.00;;;;;;5002849;28;20694;-80
2023/10/29 10:13:50;;;;;;;13.40;3.17;;;15.30;1.00;;;;;;4999532;28;20258;-84
2023/10/29 10:16:16;;;;;;;10.70;2.80;;;15.30;1.00;;;;;;4994816;28;20174;-84
2023/10/29 10:18:48;;;;;;;10.00;2.60;;;15.20;1.00;;;;;;5016684;28;20179;-85
2023/10/29 10:21:14;;;;;;;12.53;2.77;;;15.10;1.00;;;;;;5020009;28;20241;-81
2023/10/29 10:23:51;;;;;;;7.23;2.10;;;15.00;1.00;;;;;;5019900;28;20176;-82
2023/10/29 10:26:28;;;;;;;6.77;2.20;;;15.00;1.00;;;;;;5020846;28;20632;-82
2023/10/29 10:28:56;;;;;;;8.87;2.57;;;15.00;1.00;;;;;;5020393;28;20214;-81
2023/10/29 10:31:22;;;;;;;10.50;2.73;;;15.00;1.00;;;;;;5019934;28;20177;-82
2023/10/29 10:33:49;;;;;;;9.43;2.60;;;15.00;1.00;;;;;;5020699;28;20180;-82
2023/10/29 10:36:29;;;;;;;9.37;2.53;;;14.90;1.00;;;;;;5020484;28;20353;-85
2023/10/29 10:38:55;;;;;;;10.23;2.53;;;14.90;1.00;;;;;;5022515;28;20178;-81
2023/10/29 10:41:21;;;;;;;10.23;2.47;;;14.90;1.00;;;;;;5019643;28;20178;-83
2023/10/29 10:44:07;;;;;;;10.27;2.47;;;15.00;1.00;;;;;;5019643;28;20267;-84
2023/10/29 10:46:34;;;;;;;11.73;2.77;;;15.00;1.00;;;;;;5020355;28;20173;-85
2023/10/29 10:49:01;;;;;;;10.67;2.80;;;15.00;1.00;;;;;;5020799;28;20213;-84
2023/10/29 10:51:30;;;;;;;11.63;3.07;;;15.10;1.00;;;;;;5019400;28;20312;-84
2023/10/29 10:53:59;;;;;;;8.70;2.60;;;15.10;1.00;;;;;;5018626;28;20179;-81
2023/10/29 10:56:27;;;;;;;6.63;2.20;;;15.20;1.00;;;;;;5020258;28;20187;-83
2023/10/29 10:58:53;;;;;;;8.13;2.10;;;15.20;1.00;;;;;;5018384;28;20182;-84
2023/10/29 11:01:19;;;;;;;9.87;2.63;;;15.20;1.00;;;;;;5019014;28;20168;-84
2023/10/29 11:03:46;;;;;;;13.97;3.00;;;15.30;1.00;;;;;;5018255;28;20221;-83
2023/10/29 11:06:11;;;;;;;13.53;3.03;;;15.40;1.00;;;;;;5019462;28;20273;-82
2023/10/29 11:08:39;;;;;;;6.73;2.20;;;15.50;1.00;;;;;;5019185;28;20758;-83
2023/10/29 11:11:06;;;;;;;8.90;1.93;;;15.70;1.00;;;;;;5018097;28;20172;-82
2023/10/29 11:13:32;;;;;;;8.90;2.50;;;15.80;1.00;;;;;;5020303;28;20190;-82
2023/10/29 11:16:01;;;;;;;8.03;2.17;;;15.80;1.00;;;;;;5021511;28;20181;-82
2023/10/29 11:18:29;;;;;;;9.30;2.40;;;15.80;1.00;;;;;;5020328;28;20167;-82
2023/10/29 11:20:56;;;;;;;14.63;2.93;;;15.80;1.00;;;;;;5017942;28;20185;-81
2023/10/29 11:23:24;;;;;;;8.43;2.80;;;15.70;1.00;;;;;;5019534;28;20171;-84
2023/10/29 11:25:50;;;;;;;8.00;2.43;;;15.70;1.00;;;;;;5020805;28;20383;-85
2023/10/29 11:28:24;;;;;;;11.30;2.50;;;15.60;1.00;;;;;;5021369;28;20209;-82
2023/10/29 11:31:15;;;;;;;11.60;3.00;;;15.80;1.00;;;;;;5020912;28;20177;-81
2023/10/29 11:33:45;;;;;;;10.20;2.57;;;15.80;1.00;;;;;;5020510;28;20422;-81
2023/10/29 11:36:35;;;;;;;13.10;2.67;;;15.80;1.00;;;;;;5028126;28;20238;-82
2023/10/29 11:39:16;;;;;;;9.03;2.17;;;15.70;1.00;;;;;;5024716;28;20169;-79
2023/10/29 11:41:43;;;;;;;10.40;2.07;;;15.70;1.00;;;;;;5023321;28;20186;-81
2023/10/29 11:44:18;;;;;;;7.50;2.33;;;15.70;1.00;;;;;;5032754;28;20229;-81
2023/10/29 11:47:03;;;;;;;6.23;2.10;;;15.70;1.00;;;;;;5031846;28;20548;-83
2023/10/29 11:49:30;;;;;;;10.20;2.43;;;15.70;1.00;;;;;;5028839;28;20230;-83
2023/10/29 11:51:59;;;;;;;8.50;2.17;;;15.80;1.00;;;;;;5030152;28;20171;-87
2023/10/29 11:54:25;;;;;;;7.07;2.00;;;15.80;1.00;;;;;;5017943;28;20189;-82
2023/10/29 11:56:52;;;;;;;6.80;2.10;;;15.80;1.00;;;;;;5019210;28;20179;-83
2023/10/29 11:59:18;;;;;;;9.53;2.23;;;15.80;1.00;;;;;;5020804;28;20170;-81
2023/10/29 12:01:44;;;;;;;10.00;2.57;;;15.70;1.00;;;;;;5019230;28;20232;-82
2023/10/29 12:04:12;;;;;;;6.33;2.03;;;15.70;1.00;;;;;;5019454;28;20171;-83
2023/10/29 12:06:48;;;;;;;7.50;1.83;;;15.70;1.00;;;;;;5017834;28;20166;-83
2023/10/29 12:09:18;;;;;;;7.87;2.20;;;15.70;1.00;;;;;;5021267;28;20282;-83
2023/10/29 12:11:45;;;;;;;9.30;2.60;;;15.70;1.00;;;;;;5021512;28;20163;-81
2023/10/29 12:14:11;;;;;;;7.20;2.17;;;15.80;1.00;;;;;;5019284;28;20166;-81
2023/10/29 12:16:38;;;;;;;7.93;2.33;;;15.90;1.00;;;;;;5015215;28;20174;-83
2023/10/29 12:19:03;;;;;;;8.73;2.57;;;15.90;1.00;;;;;;5016516;28;20174;-83
2023/10/29 12:21:31;;;;;;;9.70;2.93;;;15.90;1.00;;;;;;5019929;28;20209;-82
2023/10/29 12:24:01;;;;;;;11.83;3.00;;;15.90;1.00;;;;;;5022276;28;20183;-85
2023/10/29 12:26:30;;;;;;;10.90;2.83;;;15.80;1.00;;;;;;5017576;28;20380;-83
2023/10/29 12:28:56;;;;;;;7.90;2.90;;;15.70;1.00;;;;;;5019100;28;20204;-83
2023/10/29 12:31:26;;;;;;;13.30;3.33;;;15.60;1.00;;;;;;5017451;28;20163;-81
2023/10/29 12:34:00;;;;;;;8.00;2.53;;;15.50;1.00;;;;;;5014786;28;20163;-81
2023/10/29 12:36:26;;;;;;;10.67;2.70;;;15.60;1.00;;;;;;5012872;28;20179;-86
2023/10/29 12:38:53;;;;;;;10.53;3.23;;;15.50;1.00;;;;;;5015627;28;20182;-80
2023/10/29 12:41:21;;;;;;;10.67;2.60;;;15.50;1.00;;;;;;5014251;28;20179;-83
2023/10/29 12:43:52;;;;;;;12.30;2.90;;;15.60;1.00;;;;;;5013793;28;20174;-81
2023/10/29 12:46:21;;;;;;;10.70;2.60;;;15.50;1.00;;;;;;5016265;28;20169;-81
2023/10/29 12:49:03;;;;;;;9.37;2.67;;;15.50;1.00;;;;;;5016782;28;20339;-84
2023/10/29 12:51:42;;;;;;;8.13;1.90;;;15.30;1.00;;;;;;5016508;28;20214;-83
2023/10/29 12:54:16;;;;;;;4.57;1.70;;;15.10;1.00;;;;;;5017009;28;20176;-80